»·PEaware :: N94HJ KBFI-KOLM

N94HJ :: KBFI-KOLM

FLIGHT INFORMATION

Flight Status: Arrived
Operator: Privately registered:
United States
More flights under this callsign
Pilot: Latitude Aviation (9250)
Aircraft: CESSNA 172 SKYHAWK
(C172)
More flights by this aircraft type
Origin: KBFI Boeing Field/King Co Intl
United States
Destination: KOLM Olympia
United States
More flights between these airports :: More routes between these airports
Route: +KENT8 ZIGED MCKEN KOLM
File this flight plan on PilotEdge
Remarks: Using own WX, winds calm, ceilings bases 900 MSL tops 8000 MSL
Altitude:
(Current/Filed)
5,000ft
Speed:
(Current/Filed)
100kts
Departed: 08-Jan-18 11:27 AM
Arrived: 08-Jan-18 12:11 PM
Distance/Time
Traveled:
41nm/0:44
Distance/Time
To Go:
Arrived

Flight Plot

Page will automatically refresh every two minutes.

Flight plan parsing failed; only flown route is shown


Map Options




Map Legend


Flown Route
Filed Route
Departure Airport
Arrival Airport
Navaid (VOR, NDB)
Fix

Horizontal Profiles

Position Reports

Time Latitude Longitude Heading Altitude Ground
Speed
08-Jan-18 11:04 47.524099 -122.300579 48 27ft 0kts
08-Jan-18 11:05 47.524099 -122.300579 48 27ft 0kts
08-Jan-18 11:06 47.524099 -122.300579 48 27ft 0kts
08-Jan-18 11:07 47.524099 -122.300579 48 27ft 0kts
08-Jan-18 11:08 47.524099 -122.300579 48 27ft 0kts
08-Jan-18 11:09 47.524099 -122.300579 48 27ft 0kts
08-Jan-18 11:10 47.524099 -122.300579 48 27ft 0kts
08-Jan-18 11:11 47.524099 -122.300579 48 27ft 0kts
08-Jan-18 11:12 47.524099 -122.300579 48 27ft 0kts
08-Jan-18 11:13 47.524099 -122.300579 48 27ft 0kts
08-Jan-18 11:14 47.524099 -122.300579 48 27ft 0kts
08-Jan-18 11:15 47.524099 -122.300579 48 27ft 0kts
08-Jan-18 11:16 47.524099 -122.300579 48 27ft 0kts
08-Jan-18 11:17 47.524099 -122.300579 48 27ft 0kts
08-Jan-18 11:18 47.524099 -122.300579 48 27ft 0kts
08-Jan-18 11:19 47.524099 -122.300579 48 27ft 0kts
08-Jan-18 11:20 47.524099 -122.300579 48 27ft 0kts
08-Jan-18 11:21 47.524099 -122.300579 48 27ft 0kts
08-Jan-18 11:22 47.524099 -122.300579 48 27ft 0kts
08-Jan-18 11:23 47.524099 -122.300579 48 27ft 0kts
08-Jan-18 11:24 47.524099 -122.300579 48 27ft 0kts
08-Jan-18 11:25 47.524099 -122.300579 48 27ft 0kts
08-Jan-18 11:26 47.524099 -122.300579 48 27ft 0kts
08-Jan-18 11:27 47.526030 -122.300621 331 28ft 15kts
08-Jan-18 11:28 47.531533 -122.305261 330 23ft 29kts
08-Jan-18 11:29 47.538695 -122.311285 329 19ft 20kts
08-Jan-18 11:30 47.539775 -122.312060 6 20ft 0kts
08-Jan-18 11:31 47.539775 -122.312060 6 20ft 0kts
08-Jan-18 11:32 47.539775 -122.312060 6 20ft 0kts
08-Jan-18 11:33 47.537323 -122.308613 148 60ft 64kts
08-Jan-18 11:34 47.516732 -122.292316 154 1158ft 90kts
08-Jan-18 11:35 47.494691 -122.273698 154 2354ft 93kts
08-Jan-18 11:36 47.472847 -122.251990 148 3224ft 120kts
08-Jan-18 11:37 47.442550 -122.229449 147 3364ft 112kts
08-Jan-18 11:38 47.415148 -122.205019 154 4132ft 124kts
08-Jan-18 11:39 47.385545 -122.180215 139 4902ft 119kts
08-Jan-18 11:40 47.358846 -122.152513 153 5054ft 117kts
08-Jan-18 11:41 47.328381 -122.132769 152 4983ft 127kts
08-Jan-18 11:42 47.298836 -122.145796 242 4962ft 125kts
08-Jan-18 11:43 47.275748 -122.179121 213 5069ft 119kts
08-Jan-18 11:44 47.247530 -122.205947 209 5093ft 118kts
08-Jan-18 11:45 47.218847 -122.228931 208 5125ft 120kts
08-Jan-18 11:46 47.190997 -122.254735 208 5184ft 120kts
08-Jan-18 11:47 47.163120 -122.282133 216 5171ft 123kts
08-Jan-18 11:48 47.134589 -122.310557 216 5138ft 121kts
08-Jan-18 11:49 47.107133 -122.340460 224 5093ft 123kts
08-Jan-18 11:50 47.079976 -122.370349 197 5022ft 122kts
08-Jan-18 11:51 47.050278 -122.393300 228 4458ft 124kts
08-Jan-18 11:52 47.024746 -122.424127 206 4238ft 122kts
08-Jan-18 11:53 46.994826 -122.446479 209 4304ft 120kts
08-Jan-18 11:54 46.966531 -122.472909 216 4341ft 120kts
08-Jan-18 11:55 46.938097 -122.500484 211 4317ft 122kts
08-Jan-18 11:56 46.910234 -122.528074 216 4314ft 125kts
08-Jan-18 11:57 46.882055 -122.555380 215 4353ft 123kts
08-Jan-18 11:58 46.853207 -122.583714 230 4181ft 130kts
08-Jan-18 11:59 46.826898 -122.612375 211 4327ft 123kts
08-Jan-18 12:00 46.796541 -122.636842 208 4281ft 123kts
08-Jan-18 12:01 46.771188 -122.669624 236 4251ft 123kts
08-Jan-18 12:02 46.753950 -122.712829 244 4236ft 123kts
08-Jan-18 12:03 46.737315 -122.756644 250 4206ft 124kts
08-Jan-18 12:04 46.726113 -122.803779 252 4223ft 122kts
08-Jan-18 12:05 46.720316 -122.852972 260 4218ft 122kts
08-Jan-18 12:06 46.718202 -122.902525 269 4212ft 123kts
08-Jan-18 12:07 46.718937 -122.952379 279 4203ft 123kts
08-Jan-18 12:08 46.734870 -122.989763 3 4190ft 125kts
08-Jan-18 12:09 46.765940 -122.973159 20 3336ft 114kts
08-Jan-18 12:10 46.793110 -122.961449 17 2723ft 94kts
08-Jan-18 12:11 46.818721 -122.952652 9 2044ft 94kts
08-Jan-18 12:12 46.845442 -122.947930 9 1752ft 108kts
08-Jan-18 12:13 46.876556 -122.939098 12 1834ft 119kts
08-Jan-18 12:14 46.904458 -122.927717 21 1341ft 86kts
08-Jan-18 12:15 46.926366 -122.917404 11 779ft 84kts
08-Jan-18 12:16 46.950651 -122.909685 8 638ft 84kts
08-Jan-18 12:17 46.966806 -122.905348 26 193ft 12kts
08-Jan-18 12:18 46.967084 -122.904051 86 193ft 2kts
08-Jan-18 12:19 46.968148 -122.900983 13 186ft 13kts
08-Jan-18 12:20 46.971071 -122.898636 49 186ft 15kts

Navigation Log

Ident Type
Flight plan parsing failed, navigation log unavailable